sensor_id;sensor_type;location;lat;lon;timestamp;pressure;altitude;pressure_sealevel;temperature;humidity
11343;BME280;5726;42.160;24.746;2022-10-22T00:01:54;100546.03;;;11.27;81.68
11343;BME280;5726;42.160;24.746;2022-10-22T00:04:19;100530.75;;;11.38;80.91
11343;BME280;5726;42.160;24.746;2022-10-22T00:06:45;100537.47;;;11.25;81.97
11343;BME280;5726;42.160;24.746;2022-10-22T00:09:12;100530.94;;;10.82;85.10
11343;BME280;5726;42.160;24.746;2022-10-22T00:11:37;100525.59;;;10.96;85.13
11343;BME280;5726;42.160;24.746;2022-10-22T00:14:03;100526.44;;;11.17;83.32
11343;BME280;5726;42.160;24.746;2022-10-22T00:16:29;100528.31;;;11.06;83.39
11343;BME280;5726;42.160;24.746;2022-10-22T00:18:54;100523.44;;;10.74;86.72
11343;BME280;5726;42.160;24.746;2022-10-22T00:21:20;100513.78;;;10.78;87.73
11343;BME280;5726;42.160;24.746;2022-10-22T00:23:45;100506.81;;;10.82;87.40
11343;BME280;5726;42.160;24.746;2022-10-22T00:26:11;100506.84;;;11.01;85.58
11343;BME280;5726;42.160;24.746;2022-10-22T00:28:37;100502.81;;;10.99;85.60
11343;BME280;5726;42.160;24.746;2022-10-22T00:31:03;100506.88;;;11.31;83.77
11343;BME280;5726;42.160;24.746;2022-10-22T00:33:30;100506.84;;;10.87;86.81
11343;BME280;5726;42.160;24.746;2022-10-22T00:35:55;100502.25;;;10.87;87.96
11343;BME280;5726;42.160;24.746;2022-10-22T00:38:21;100506.28;;;10.99;87.14
11343;BME280;5726;42.160;24.746;2022-10-22T00:40:46;100500.97;;;11.19;85.83
11343;BME280;5726;42.160;24.746;2022-10-22T00:43:14;100493.41;;;11.26;85.20
11343;BME280;5726;42.160;24.746;2022-10-22T00:45:40;100497.19;;;11.40;84.41
11343;BME280;5726;42.160;24.746;2022-10-22T00:48:21;100494.25;;;11.61;82.76
11343;BME280;5726;42.160;24.746;2022-10-22T00:50:55;100490.75;;;11.51;82.73
11343;BME280;5726;42.160;24.746;2022-10-22T00:53:28;100492.38;;;11.52;82.65
11343;BME280;5726;42.160;24.746;2022-10-22T00:55:56;100492.06;;;11.63;80.72
11343;BME280;5726;42.160;24.746;2022-10-22T00:58:24;100483.25;;;11.28;83.30
11343;BME280;5726;42.160;24.746;2022-10-22T01:00:51;100486.97;;;11.32;83.89
11343;BME280;5726;42.160;24.746;2022-10-22T01:03:18;100489.13;;;11.35;83.41
11343;BME280;5726;42.160;24.746;2022-10-22T01:05:58;100495.56;;;11.24;84.52
11343;BME280;5726;42.160;24.746;2022-10-22T01:08:31;100496.38;;;11.25;84.37
11343;BME280;5726;42.160;24.746;2022-10-22T01:11:14;100496.91;;;11.17;84.48
11343;BME280;5726;42.160;24.746;2022-10-22T01:16:20;100484.28;;;11.42;82.67
11343;BME280;5726;42.160;24.746;2022-10-22T01:19:00;100481.06;;;11.35;82.38
11343;BME280;5726;42.160;24.746;2022-10-22T01:21:45;100479.44;;;11.44;81.55
11343;BME280;5726;42.160;24.746;2022-10-22T01:30:02;100470.88;;;10.93;84.04
11343;BME280;5726;42.160;24.746;2022-10-22T01:32:31;100477.03;;;10.98;84.96
11343;BME280;5726;42.160;24.746;2022-10-22T01:35:01;100489.91;;;10.86;85.46
11343;BME280;5726;42.160;24.746;2022-10-22T01:37:29;100487.00;;;10.93;85.44
11343;BME280;5726;42.160;24.746;2022-10-22T01:39:58;100480.53;;;11.23;82.11
11343;BME280;5726;42.160;24.746;2022-10-22T01:42:25;100480.53;;;10.84;83.88
11343;BME280;5726;42.160;24.746;2022-10-22T01:44:50;100476.19;;;10.48;86.66
11343;BME280;5726;42.160;24.746;2022-10-22T01:50:23;100468.66;;;10.55;87.08
11343;BME280;5726;42.160;24.746;2022-10-22T01:53:08;100474.59;;;10.57;86.53
11343;BME280;5726;42.160;24.746;2022-10-22T01:58:36;100473.56;;;10.78;85.34
11343;BME280;5726;42.160;24.746;2022-10-22T02:01:17;100477.56;;;10.75;85.07
11343;BME280;5726;42.160;24.746;2022-10-22T02:03:54;100476.19;;;10.53;85.87
11343;BME280;5726;42.160;24.746;2022-10-22T02:06:21;100478.28;;;10.46;86.99
11343;BME280;5726;42.160;24.746;2022-10-22T02:08:48;100474.53;;;10.42;86.66
11343;BME280;5726;42.160;24.746;2022-10-22T02:11:15;100482.03;;;10.35;86.47
11343;BME280;5726;42.160;24.746;2022-10-22T02:13:48;100483.81;;;10.10;88.60
11343;BME280;5726;42.160;24.746;2022-10-22T02:16:24;100496.75;;;10.28;86.96
11343;BME280;5726;42.160;24.746;2022-10-22T02:18:53;100493.19;;;10.12;88.43
11343;BME280;5726;42.160;24.746;2022-10-22T02:21:20;100491.28;;;9.62;91.61
11343;BME280;5726;42.160;24.746;2022-10-22T02:23:46;100492.09;;;9.62;93.14
11343;BME280;5726;42.160;24.746;2022-10-22T02:26:20;100485.69;;;9.68;92.96
11343;BME280;5726;42.160;24.746;2022-10-22T02:29:04;100488.00;;;9.91;91.14
11343;BME280;5726;42.160;24.746;2022-10-22T02:31:33;100490.88;;;9.80;91.13
11343;BME280;5726;42.160;24.746;2022-10-22T02:34:07;100478.06;;;9.92;90.67
11343;BME280;5726;42.160;24.746;2022-10-22T02:36:36;100485.22;;;10.37;86.97
11343;BME280;5726;42.160;24.746;2022-10-22T02:39:03;100486.22;;;10.16;88.17
11343;BME280;5726;42.160;24.746;2022-10-22T02:41:30;100481.34;;;9.99;89.24
11343;BME280;5726;42.160;24.746;2022-10-22T02:43:56;100478.59;;;9.89;90.26
11343;BME280;5726;42.160;24.746;2022-10-22T02:46:23;100486.22;;;10.11;89.01
11343;BME280;5726;42.160;24.746;2022-10-22T02:48:49;100488.16;;;10.26;87.11
11343;BME280;5726;42.160;24.746;2022-10-22T02:51:15;100483.03;;;10.19;87.93
11343;BME280;5726;42.160;24.746;2022-10-22T02:53:40;100489.53;;;10.33;87.52
11343;BME280;5726;42.160;24.746;2022-10-22T02:56:06;100493.00;;;10.39;86.17
11343;BME280;5726;42.160;24.746;2022-10-22T02:58:31;100474.81;;;10.46;86.18
11343;BME280;5726;42.160;24.746;2022-10-22T03:00:57;100470.31;;;10.66;84.21
11343;BME280;5726;42.160;24.746;2022-10-22T03:03:22;100478.91;;;10.63;84.32
11343;BME280;5726;42.160;24.746;2022-10-22T03:05:49;100472.97;;;10.56;84.47
11343;BME280;5726;42.160;24.746;2022-10-22T03:08:15;100484.69;;;10.35;85.66
11343;BME280;5726;42.160;24.746;2022-10-22T03:10:41;100485.06;;;10.63;84.42
11343;BME280;5726;42.160;24.746;2022-10-22T03:13:06;100480.78;;;10.67;83.20
11343;BME280;5726;42.160;24.746;2022-10-22T03:15:32;100484.53;;;10.86;81.70
11343;BME280;5726;42.160;24.746;2022-10-22T03:17:57;100476.19;;;10.58;83.03
11343;BME280;5726;42.160;24.746;2022-10-22T03:20:23;100483.13;;;10.49;84.02
11343;BME280;5726;42.160;24.746;2022-10-22T03:22:48;100468.13;;;10.58;84.44
11343;BME280;5726;42.160;24.746;2022-10-22T03:25:19;100469.50;;;10.60;84.20
11343;BME280;5726;42.160;24.746;2022-10-22T03:27:45;100468.16;;;10.68;83.85
11343;BME280;5726;42.160;24.746;2022-10-22T03:30:11;100476.75;;;10.80;83.25
11343;BME280;5726;42.160;24.746;2022-10-22T03:32:37;100473.81;;;10.76;82.39
11343;BME280;5726;42.160;24.746;2022-10-22T03:35:03;100469.75;;;10.54;83.88
11343;BME280;5726;42.160;24.746;2022-10-22T03:37:29;100461.44;;;10.55;83.89
11343;BME280;5726;42.160;24.746;2022-10-22T03:39:56;100463.34;;;10.65;83.38
11343;BME280;5726;42.160;24.746;2022-10-22T03:42:22;100461.75;;;10.69;83.08
11343;BME280;5726;42.160;24.746;2022-10-22T03:44:48;100461.75;;;10.69;83.33
11343;BME280;5726;42.160;24.746;2022-10-22T03:47:14;100466.31;;;10.73;82.77
11343;BME280;5726;42.160;24.746;2022-10-22T03:49:39;100466.84;;;10.75;82.78
11343;BME280;5726;42.160;24.746;2022-10-22T03:52:13;100471.94;;;10.82;83.33
11343;BME280;5726;42.160;24.746;2022-10-22T03:54:38;100474.09;;;10.90;83.42
11343;BME280;5726;42.160;24.746;2022-10-22T03:57:05;100466.59;;;11.01;81.71
11343;BME280;5726;42.160;24.746;2022-10-22T03:59:39;100470.06;;;10.92;81.73
11343;BME280;5726;42.160;24.746;2022-10-22T04:02:05;100476.22;;;10.88;81.29
11343;BME280;5726;42.160;24.746;2022-10-22T04:04:31;100470.34;;;10.81;81.51
11343;BME280;5726;42.160;24.746;2022-10-22T04:06:56;100475.16;;;10.79;81.42
11343;BME280;5726;42.160;24.746;2022-10-22T04:09:22;100477.81;;;10.64;81.37
11343;BME280;5726;42.160;24.746;2022-10-22T04:11:47;100480.47;;;10.59;81.72
11343;BME280;5726;42.160;24.746;2022-10-22T04:14:13;100478.31;;;10.61;81.46
11343;BME280;5726;42.160;24.746;2022-10-22T04:16:39;100483.69;;;10.61;80.83
11343;BME280;5726;42.160;24.746;2022-10-22T04:19:06;100480.44;;;10.44;81.42
11343;BME280;5726;42.160;24.746;2022-10-22T04:21:32;100484.22;;;10.58;81.76
11343;BME280;5726;42.160;24.746;2022-10-22T04:23:57;100490.06;;;10.40;81.31
11343;BME280;5726;42.160;24.746;2022-10-22T04:26:23;100477.22;;;10.42;81.63
11343;BME280;5726;42.160;24.746;2022-10-22T04:28:50;100492.75;;;10.30;81.55
11343;BME280;5726;42.160;24.746;2022-10-22T04:31:18;100493.28;;;10.32;81.67
11343;BME280;5726;42.160;24.746;2022-10-22T04:33:44;100493.00;;;10.34;81.42
11343;BME280;5726;42.160;24.746;2022-10-22T04:36:12;100496.16;;;10.11;82.38
11343;BME280;5726;42.160;24.746;2022-10-22T04:38:38;100500.88;;;9.94;83.17
11343;BME280;5726;42.160;24.746;2022-10-22T04:41:14;100501.69;;;10.00;82.96
11343;BME280;5726;42.160;24.746;2022-10-22T04:43:41;100500.97;;;10.09;83.57
11343;BME280;5726;42.160;24.746;2022-10-22T04:46:08;100501.69;;;9.95;83.60
11343;BME280;5726;42.160;24.746;2022-10-22T04:48:38;100485.34;;;9.96;83.97
11343;BME280;5726;42.160;24.746;2022-10-22T04:51:05;100483.28;;;10.13;82.99
11343;BME280;5726;42.160;24.746;2022-10-22T04:53:31;100476.09;;;10.28;82.63
11343;BME280;5726;42.160;24.746;2022-10-22T04:56:32;100474.56;;;10.52;81.30
11343;BME280;5726;42.160;24.746;2022-10-22T04:59:00;100468.13;;;10.58;81.22
11343;BME280;5726;42.160;24.746;2022-10-22T05:01:30;100465.50;;;10.88;79.32
11343;BME280;5726;42.160;24.746;2022-10-22T05:03:58;100470.88;;;10.97;77.56
11343;BME280;5726;42.160;24.746;2022-10-22T05:06:25;100465.25;;;11.04;77.67
11343;BME280;5726;42.160;24.746;2022-10-22T05:08:58;100467.13;;;10.94;82.64
11343;BME280;5726;42.160;24.746;2022-10-22T05:11:27;100455.88;;;11.16;80.71
11343;BME280;5726;42.160;24.746;2022-10-22T05:13:57;100460.69;;;11.34;78.43
11343;BME280;5726;42.160;24.746;2022-10-22T05:16:23;100451.75;;;11.78;89.04
11343;BME280;5726;42.160;24.746;2022-10-22T05:18:49;100463.75;;;12.00;85.81
11343;BME280;5726;42.160;24.746;2022-10-22T05:21:17;100464.63;;;12.49;79.81
11343;BME280;5726;42.160;24.746;2022-10-22T05:23:44;100464.09;;;12.42;72.83
11343;BME280;5726;42.160;24.746;2022-10-22T05:26:11;100464.78;;;12.19;72.43
11343;BME280;5726;42.160;24.746;2022-10-22T05:28:37;100464.56;;;12.06;71.76
11343;BME280;5726;42.160;24.746;2022-10-22T05:31:04;100467.91;;;12.41;70.12
11343;BME280;5726;42.160;24.746;2022-10-22T05:33:31;100464.56;;;12.59;67.26
11343;BME280;5726;42.160;24.746;2022-10-22T05:35:58;100464.19;;;12.75;66.06
11343;BME280;5726;42.160;24.746;2022-10-22T05:38:24;100469.25;;;12.82;65.90
11343;BME280;5726;42.160;24.746;2022-10-22T05:41:04;100466.78;;;12.95;64.95
11343;BME280;5726;42.160;24.746;2022-10-22T05:43:30;100462.00;;;13.20;63.20
11343;BME280;5726;42.160;24.746;2022-10-22T05:46:00;100460.66;;;13.46;61.30
11343;BME280;5726;42.160;24.746;2022-10-22T05:48:27;100469.84;;;13.17;62.50
11343;BME280;5726;42.160;24.746;2022-10-22T05:50:52;100452.50;;;12.94;63.68
11343;BME280;5726;42.160;24.746;2022-10-22T05:53:17;100452.88;;;13.44;62.34
11343;BME280;5726;42.160;24.746;2022-10-22T05:55:43;100455.44;;;13.83;60.82
11343;BME280;5726;42.160;24.746;2022-10-22T05:58:09;100454.00;;;13.67;61.87
11343;BME280;5726;42.160;24.746;2022-10-22T06:00:36;100462.28;;;13.98;61.02
11343;BME280;5726;42.160;24.746;2022-10-22T06:03:01;100464.84;;;14.32;59.09
11343;BME280;5726;42.160;24.746;2022-10-22T06:05:27;100463.47;;;14.34;59.29
11343;BME280;5726;42.160;24.746;2022-10-22T06:07:52;100466.97;;;14.53;58.18
11343;BME280;5726;42.160;24.746;2022-10-22T06:10:19;100470.16;;;14.18;59.71
11343;BME280;5726;42.160;24.746;2022-10-22T06:12:46;100461.66;;;14.06;60.71
11343;BME280;5726;42.160;24.746;2022-10-22T06:15:13;100460.63;;;14.26;59.55
11343;BME280;5726;42.160;24.746;2022-10-22T06:17:39;100449.53;;;14.45;58.76
11343;BME280;5726;42.160;24.746;2022-10-22T06:20:06;100452.78;;;14.06;63.62
11343;BME280;5726;42.160;24.746;2022-10-22T06:22:32;100467.84;;;13.84;69.69
11343;BME280;5726;42.160;24.746;2022-10-22T06:24:57;100463.34;;;13.97;69.92
11343;BME280;5726;42.160;24.746;2022-10-22T06:27:23;100463.94;;;13.94;65.70
11343;BME280;5726;42.160;24.746;2022-10-22T06:29:48;100467.16;;;13.73;66.26
11343;BME280;5726;42.160;24.746;2022-10-22T06:32:13;100467.66;;;13.47;65.45
11343;BME280;5726;42.160;24.746;2022-10-22T06:34:39;100470.31;;;13.52;64.01
11343;BME280;5726;42.160;24.746;2022-10-22T06:37:04;100470.16;;;13.38;65.01
11343;BME280;5726;42.160;24.746;2022-10-22T06:39:30;100476.53;;;13.19;65.50
11343;BME280;5726;42.160;24.746;2022-10-22T06:41:55;100473.31;;;13.17;66.10
11343;BME280;5726;42.160;24.746;2022-10-22T06:44:21;100475.06;;;12.98;67.72
11343;BME280;5726;42.160;24.746;2022-10-22T06:46:50;100475.56;;;13.05;67.29
11343;BME280;5726;42.160;24.746;2022-10-22T06:49:19;100475.97;;;13.22;66.29
11343;BME280;5726;42.160;24.746;2022-10-22T06:51:47;100486.09;;;13.35;66.22
11343;BME280;5726;42.160;24.746;2022-10-22T06:54:13;100479.22;;;13.52;64.76
11343;BME280;5726;42.160;24.746;2022-10-22T06:56:39;100482.03;;;13.66;64.66
11343;BME280;5726;42.160;24.746;2022-10-22T06:59:04;100485.47;;;13.43;68.21
11343;BME280;5726;42.160;24.746;2022-10-22T07:01:31;100495.59;;;13.28;71.56
11343;BME280;5726;42.160;24.746;2022-10-22T07:03:58;100494.13;;;13.40;73.53
11343;BME280;5726;42.160;24.746;2022-10-22T07:06:25;100508.78;;;13.85;75.08
11343;BME280;5726;42.160;24.746;2022-10-22T07:08:52;100498.91;;;13.76;69.47
11343;BME280;5726;42.160;24.746;2022-10-22T07:11:27;100501.88;;;14.03;67.54
11343;BME280;5726;42.160;24.746;2022-10-22T07:13:55;100500.03;;;13.98;66.80
11343;BME280;5726;42.160;24.746;2022-10-22T07:16:21;100498.47;;;13.92;69.53
11343;BME280;5726;42.160;24.746;2022-10-22T07:18:47;100495.72;;;13.97;65.77
11343;BME280;5726;42.160;24.746;2022-10-22T07:21:14;100483.94;;;14.17;65.74
11343;BME280;5726;42.160;24.746;2022-10-22T07:23:40;100486.53;;;13.98;67.36
11343;BME280;5726;42.160;24.746;2022-10-22T07:26:06;100485.63;;;14.31;67.78
11343;BME280;5726;42.160;24.746;2022-10-22T07:28:34;100483.19;;;14.53;66.63
11343;BME280;5726;42.160;24.746;2022-10-22T07:31:00;100486.81;;;14.62;65.02
11343;BME280;5726;42.160;24.746;2022-10-22T07:33:26;100478.31;;;14.55;63.40
11343;BME280;5726;42.160;24.746;2022-10-22T07:36:00;100485.81;;;14.58;63.20
11343;BME280;5726;42.160;24.746;2022-10-22T07:38:26;100483.91;;;14.77;63.22
11343;BME280;5726;42.160;24.746;2022-10-22T07:40:52;100481.56;;;14.88;62.14
11343;BME280;5726;42.160;24.746;2022-10-22T07:43:17;100488.00;;;14.56;63.67
11343;BME280;5726;42.160;24.746;2022-10-22T07:45:42;100488.66;;;14.66;63.50
11343;BME280;5726;42.160;24.746;2022-10-22T07:48:08;100485.31;;;14.74;64.12
11343;BME280;5726;42.160;24.746;2022-10-22T07:50:33;100489.13;;;14.32;67.47
11343;BME280;5726;42.160;24.746;2022-10-22T07:52:59;100481.59;;;14.52;67.60
11343;BME280;5726;42.160;24.746;2022-10-22T07:55:24;100480.44;;;14.58;65.78
11343;BME280;5726;42.160;24.746;2022-10-22T07:57:50;100469.47;;;14.68;65.00
11343;BME280;5726;42.160;24.746;2022-10-22T08:00:16;100469.34;;;14.78;64.15
11343;BME280;5726;42.160;24.746;2022-10-22T08:02:42;100483.50;;;14.70;63.89
11343;BME280;5726;42.160;24.746;2022-10-22T08:05:08;100475.66;;;15.23;65.59
11343;BME280;5726;42.160;24.746;2022-10-22T08:07:33;100467.91;;;15.48;63.20
11343;BME280;5726;42.160;24.746;2022-10-22T08:09:59;100468.19;;;15.78;60.55
11343;BME280;5726;42.160;24.746;2022-10-22T08:12:24;100471.41;;;16.07;59.04
11343;BME280;5726;42.160;24.746;2022-10-22T08:14:50;100471.00;;;16.27;58.94
11343;BME280;5726;42.160;24.746;2022-10-22T08:17:15;100472.50;;;16.46;57.15
11343;BME280;5726;42.160;24.746;2022-10-22T08:19:41;100461.53;;;16.65;57.73
11343;BME280;5726;42.160;24.746;2022-10-22T08:22:07;100464.91;;;16.70;56.54
11343;BME280;5726;42.160;24.746;2022-10-22T08:24:32;100457.06;;;16.47;57.98
11343;BME280;5726;42.160;24.746;2022-10-22T08:26:58;100462.41;;;16.74;56.47
11343;BME280;5726;42.160;24.746;2022-10-22T08:29:24;100466.09;;;16.42;57.75
11343;BME280;5726;42.160;24.746;2022-10-22T08:31:51;100471.69;;;16.46;57.46
11343;BME280;5726;42.160;24.746;2022-10-22T08:34:17;100459.97;;;16.85;56.67
11343;BME280;5726;42.160;24.746;2022-10-22T08:36:43;100460.47;;;17.31;57.89
11343;BME280;5726;42.160;24.746;2022-10-22T08:39:08;100460.47;;;17.31;57.45
11343;BME280;5726;42.160;24.746;2022-10-22T08:41:43;100459.31;;;17.45;60.82
11343;BME280;5726;42.160;24.746;2022-10-22T08:44:51;100451.56;;;17.30;56.58
11343;BME280;5726;42.160;24.746;2022-10-22T08:50:23;100453.31;;;17.87;54.22
11343;BME280;5726;42.160;24.746;2022-10-22T08:52:55;100443.75;;;17.89;54.91
11343;BME280;5726;42.160;24.746;2022-10-22T08:55:23;100439.41;;;17.88;53.91
11343;BME280;5726;42.160;24.746;2022-10-22T08:58:00;100438.84;;;17.70;55.07
11343;BME280;5726;42.160;24.746;2022-10-22T09:00:34;100434.72;;;17.72;55.88
11343;BME280;5726;42.160;24.746;2022-10-22T09:03:30;100433.31;;;17.74;54.95
11343;BME280;5726;42.160;24.746;2022-10-22T09:08:34;100424.81;;;17.68;55.40
11343;BME280;5726;42.160;24.746;2022-10-22T09:13:43;100417.91;;;18.00;54.40
11343;BME280;5726;42.160;24.746;2022-10-22T09:25:32;100409.38;;;18.15;52.91
11343;BME280;5726;42.160;24.746;2022-10-22T09:27:32;100405.56;;;18.50;53.60
11343;BME280;5726;42.160;24.746;2022-10-22T09:29:57;100387.88;;;18.61;53.88
11343;BME280;5726;42.160;24.746;2022-10-22T09:32:24;100402.88;;;18.67;53.03
11343;BME280;5726;42.160;24.746;2022-10-22T09:34:55;100401.44;;;18.61;51.46
11343;BME280;5726;42.160;24.746;2022-10-22T09:37:25;100404.78;;;18.32;53.24
11343;BME280;5726;42.160;24.746;2022-10-22T09:39:51;100408.75;;;18.26;53.75
11343;BME280;5726;42.160;24.746;2022-10-22T09:42:18;100393.63;;;18.59;52.18
11343;BME280;5726;42.160;24.746;2022-10-22T09:44:54;100385.00;;;18.74;52.66
11343;BME280;5726;42.160;24.746;2022-10-22T09:47:39;100376.34;;;18.55;52.55
11343;BME280;5726;42.160;24.746;2022-10-22T09:52:43;100363.41;;;18.77;53.55
11343;BME280;5726;42.160;24.746;2022-10-22T09:55:16;100357.97;;;18.77;52.48
11343;BME280;5726;42.160;24.746;2022-10-22T09:57:42;100356.84;;;18.62;51.50
11343;BME280;5726;42.160;24.746;2022-10-22T10:00:09;100349.19;;;18.55;53.55
11343;BME280;5726;42.160;24.746;2022-10-22T10:02:39;100353.81;;;18.63;52.66
11343;BME280;5726;42.160;24.746;2022-10-22T10:05:06;100343.25;;;18.62;52.09
11343;BME280;5726;42.160;24.746;2022-10-22T10:07:34;100337.84;;;18.78;51.94
11343;BME280;5726;42.160;24.746;2022-10-22T10:09:59;100349.34;;;18.59;51.67
11343;BME280;5726;42.160;24.746;2022-10-22T10:15:41;100335.25;;;18.73;51.04
11343;BME280;5726;42.160;24.746;2022-10-22T10:21:03;100330.00;;;18.77;51.07
11343;BME280;5726;42.160;24.746;2022-10-22T10:23:35;100321.53;;;18.78;49.98
11343;BME280;5726;42.160;24.746;2022-10-22T10:26:26;100319.56;;;18.96;50.50
11343;BME280;5726;42.160;24.746;2022-10-22T10:29:29;100316.06;;;18.95;50.71
11343;BME280;5726;42.160;24.746;2022-10-22T10:37:34;100296.06;;;19.08;49.55
11343;BME280;5726;42.160;24.746;2022-10-22T10:43:15;100301.47;;;19.00;49.34
11343;BME280;5726;42.160;24.746;2022-10-22T10:54:30;100262.56;;;19.24;48.39
11343;BME280;5726;42.160;24.746;2022-10-22T10:57:54;100259.41;;;19.14;48.42
11343;BME280;5726;42.160;24.746;2022-10-22T11:00:03;100248.34;;;19.48;47.76
11343;BME280;5726;42.160;24.746;2022-10-22T11:05:44;100238.22;;;19.28;47.85
11343;BME280;5726;42.160;24.746;2022-10-22T11:08:26;100242.75;;;19.53;47.25
11343;BME280;5726;42.160;24.746;2022-10-22T11:13:33;100226.34;;;18.95;47.87
11343;BME280;5726;42.160;24.746;2022-10-22T11:16:23;100209.72;;;19.05;48.20
11343;BME280;5726;42.160;24.746;2022-10-22T11:19:18;100216.44;;;18.99;48.00
11343;BME280;5726;42.160;24.746;2022-10-22T11:21:53;100206.72;;;19.27;48.59
11343;BME280;5726;42.160;24.746;2022-10-22T11:24:26;100201.53;;;19.42;46.72
11343;BME280;5726;42.160;24.746;2022-10-22T11:27:24;100203.06;;;19.52;46.33
11343;BME280;5726;42.160;24.746;2022-10-22T11:29:58;100195.97;;;19.59;46.21
11343;BME280;5726;42.160;24.746;2022-10-22T11:32:26;100193.25;;;19.59;45.36
11343;BME280;5726;42.160;24.746;2022-10-22T11:34:55;100196.63;;;19.56;45.91
11343;BME280;5726;42.160;24.746;2022-10-22T11:37:25;100189.38;;;19.89;45.26
11343;BME280;5726;42.160;24.746;2022-10-22T11:39:56;100185.38;;;19.66;45.10
11343;BME280;5726;42.160;24.746;2022-10-22T11:42:39;100181.81;;;19.94;44.56
11343;BME280;5726;42.160;24.746;2022-10-22T11:50:20;100170.50;;;20.04;44.28
11343;BME280;5726;42.160;24.746;2022-10-22T11:53:01;100164.72;;;20.38;44.52
11343;BME280;5726;42.160;24.746;2022-10-22T12:00:54;100158.25;;;20.10;43.30
11343;BME280;5726;42.160;24.746;2022-10-22T12:11:19;100136.69;;;20.61;41.74
11343;BME280;5726;42.160;24.746;2022-10-22T12:14:12;100128.81;;;20.80;42.35
11343;BME280;5726;42.160;24.746;2022-10-22T12:17:12;100126.19;;;20.95;41.75
11343;BME280;5726;42.160;24.746;2022-10-22T12:19:40;100132.78;;;20.82;42.00
11343;BME280;5726;42.160;24.746;2022-10-22T12:24:52;100137.31;;;20.78;41.98
11343;BME280;5726;42.160;24.746;2022-10-22T12:27:24;100129.09;;;20.55;42.85
11343;BME280;5726;42.160;24.746;2022-10-22T12:29:55;100119.84;;;20.67;42.40
11343;BME280;5726;42.160;24.746;2022-10-22T12:32:22;100119.31;;;20.54;43.17
11343;BME280;5726;42.160;24.746;2022-10-22T12:34:49;100122.28;;;20.49;43.10
11343;BME280;5726;42.160;24.746;2022-10-22T12:37:16;100116.56;;;20.18;44.11
11343;BME280;5726;42.160;24.746;2022-10-22T12:39:43;100117.25;;;20.39;44.28
11343;BME280;5726;42.160;24.746;2022-10-22T12:42:14;100105.47;;;20.47;43.27
11343;BME280;5726;42.160;24.746;2022-10-22T12:44:42;100101.84;;;20.55;43.86
11343;BME280;5726;42.160;24.746;2022-10-22T12:47:14;100096.00;;;20.88;42.72
11343;BME280;5726;42.160;24.746;2022-10-22T12:49:44;100106.66;;;20.69;41.97
11343;BME280;5726;42.160;24.746;2022-10-22T12:52:21;100096.41;;;20.66;42.65
11343;BME280;5726;42.160;24.746;2022-10-22T12:54:49;100094.00;;;20.41;44.44
11343;BME280;5726;42.160;24.746;2022-10-22T12:57:20;100091.38;;;20.57;43.01
11343;BME280;5726;42.160;24.746;2022-10-22T12:59:48;100094.16;;;20.68;43.10
11343;BME280;5726;42.160;24.746;2022-10-22T13:02:23;100091.31;;;20.89;42.74
11343;BME280;5726;42.160;24.746;2022-10-22T13:05:16;100097.53;;;20.65;42.40
11343;BME280;5726;42.160;24.746;2022-10-22T13:07:50;100090.06;;;20.98;41.24
11343;BME280;5726;42.160;24.746;2022-10-22T13:10:37;100090.97;;;20.90;42.07
11343;BME280;5726;42.160;24.746;2022-10-22T13:13:04;100080.75;;;20.87;42.55
11343;BME280;5726;42.160;24.746;2022-10-22T13:18:20;100081.31;;;21.05;41.98
11343;BME280;5726;42.160;24.746;2022-10-22T13:21:03;100082.34;;;21.12;41.45
11343;BME280;5726;42.160;24.746;2022-10-22T13:23:32;100076.22;;;20.91;41.92
11343;BME280;5726;42.160;24.746;2022-10-22T13:28:35;100083.47;;;20.87;41.01
11343;BME280;5726;42.160;24.746;2022-10-22T13:31:08;100081.00;;;20.82;41.41
11343;BME280;5726;42.160;24.746;2022-10-22T13:33:40;100080.75;;;20.87;41.53
11343;BME280;5726;42.160;24.746;2022-10-22T13:36:12;100074.28;;;20.80;42.02
11343;BME280;5726;42.160;24.746;2022-10-22T13:38:38;100067.56;;;20.77;41.66
11343;BME280;5726;42.160;24.746;2022-10-22T13:41:04;100059.03;;;20.91;41.77
11343;BME280;5726;42.160;24.746;2022-10-22T13:43:41;100066.22;;;20.71;42.92
11343;BME280;5726;42.160;24.746;2022-10-22T13:46:08;100074.59;;;20.66;42.94
11343;BME280;5726;42.160;24.746;2022-10-22T13:48:33;100063.69;;;20.66;42.56
11343;BME280;5726;42.160;24.746;2022-10-22T13:50:59;100076.53;;;20.66;42.33
11343;BME280;5726;42.160;24.746;2022-10-22T13:53:26;100061.91;;;20.70;43.28
11343;BME280;5726;42.160;24.746;2022-10-22T13:55:53;100053.47;;;20.52;43.32
11343;BME280;5726;42.160;24.746;2022-10-22T13:58:20;100056.44;;;20.59;42.82
11343;BME280;5726;42.160;24.746;2022-10-22T14:00:51;100050.19;;;20.58;42.53
11343;BME280;5726;42.160;24.746;2022-10-22T14:03:21;100048.72;;;20.61;42.72
11343;BME280;5726;42.160;24.746;2022-10-22T14:05:47;100042.03;;;20.70;42.01
11343;BME280;5726;42.160;24.746;2022-10-22T14:08:19;100042.59;;;20.75;42.22
11343;BME280;5726;42.160;24.746;2022-10-22T14:10:45;100035.53;;;20.86;42.52
11343;BME280;5726;42.160;24.746;2022-10-22T14:13:12;100036.91;;;20.80;42.05
11343;BME280;5726;42.160;24.746;2022-10-22T14:15:38;100028.88;;;20.72;42.30
11343;BME280;5726;42.160;24.746;2022-10-22T14:18:06;100026.84;;;20.69;41.48
11343;BME280;5726;42.160;24.746;2022-10-22T14:20:36;100037.94;;;20.76;42.30
11343;BME280;5726;42.160;24.746;2022-10-22T14:23:26;100037.13;;;20.87;43.67
11343;BME280;5726;42.160;24.746;2022-10-22T14:25:52;100033.50;;;20.71;44.19
11343;BME280;5726;42.160;24.746;2022-10-22T14:28:17;100038.03;;;20.56;42.72
11343;BME280;5726;42.160;24.746;2022-10-22T14:30:44;100030.00;;;20.83;42.03
11343;BME280;5726;42.160;24.746;2022-10-22T14:33:18;100030.56;;;20.76;42.18